createdAt,value
2018-05-13T00:01:59.257Z,94.80
2018-05-13T00:04:27.520Z,94.80
2018-05-13T00:06:55.043Z,94.80
2018-05-13T00:09:22.545Z,94.80
2018-05-13T00:11:50.831Z,95.10
2018-05-13T00:14:19.100Z,95.00
2018-05-13T00:16:47.390Z,95.00
2018-05-13T00:19:15.657Z,95.10
2018-05-13T00:21:43.921Z,95.20
2018-05-13T00:24:11.440Z,95.10
2018-05-13T00:26:38.943Z,95.30
2018-05-13T00:29:06.469Z,95.30
2018-05-13T00:31:33.972Z,95.40
2018-05-13T00:34:02.259Z,95.60
2018-05-13T00:36:29.752Z,95.50
2018-05-13T00:38:57.252Z,95.60
2018-05-13T00:41:24.779Z,95.70
2018-05-13T00:43:52.272Z,95.60
2018-05-13T00:46:20.552Z,95.40
2018-05-13T00:48:48.817Z,95.80
2018-05-13T00:51:16.336Z,95.80
2018-05-13T00:53:43.844Z,95.80
2018-05-13T00:56:12.113Z,96.00
2018-05-13T00:58:39.636Z,96.00
2018-05-13T01:01:07.142Z,96.40
2018-05-13T01:03:35.433Z,96.20
2018-05-13T01:06:02.932Z,96.20
2018-05-13T01:08:30.453Z,96.30
2018-05-13T01:10:57.953Z,96.20
2018-05-13T01:13:25.457Z,96.30
2018-05-13T01:15:53.745Z,96.70
2018-05-13T01:18:21.249Z,96.70
2018-05-13T01:20:48.768Z,96.80
2018-05-13T01:23:16.261Z,96.90
2018-05-13T01:25:43.780Z,97.00
2018-05-13T01:28:11.281Z,97.10
2018-05-13T01:30:38.795Z,97.20
2018-05-13T01:33:06.300Z,97.30
2018-05-13T01:35:33.797Z,97.30
2018-05-13T01:38:02.088Z,97.50
2018-05-13T01:40:29.588Z,97.50
2018-05-13T01:42:57.108Z,97.50
2018-05-13T01:45:24.609Z,97.60
2018-05-13T01:47:52.128Z,97.60
2018-05-13T01:50:19.625Z,97.60
2018-05-13T01:52:47.125Z,97.70
2018-05-13T01:55:15.413Z,97.70
2018-05-13T01:57:43.676Z,97.80
2018-05-13T02:00:11.956Z,97.90
2018-05-13T02:02:40.213Z,97.90
2018-05-13T02:05:07.733Z,97.90
2018-05-13T02:07:35.233Z,97.80
2018-05-13T02:10:02.752Z,97.80
2018-05-13T02:12:30.398Z,97.90
2018-05-13T02:14:57.896Z,97.90
2018-05-13T02:17:25.421Z,97.90
2018-05-13T02:19:52.917Z,97.90
2018-05-13T02:22:20.436Z,98.00
2018-05-13T02:24:47.933Z,98.20
2018-05-13T02:27:15.450Z,98.20
2018-05-13T02:29:46.396Z,98.20
2018-05-13T02:32:13.916Z,98.10
2018-05-13T02:34:42.177Z,98.20
2018-05-13T02:37:09.676Z,98.20
2018-05-13T02:39:37.192Z,98.30
2018-05-13T02:42:06.201Z,98.30
2018-05-13T02:44:34.484Z,98.40
2018-05-13T02:47:02.748Z,98.40
2018-05-13T02:49:31.037Z,98.90
2018-05-13T02:51:59.300Z,98.60
2018-05-13T02:54:26.819Z,98.60
2018-05-13T02:56:54.313Z,98.80
2018-05-13T02:59:21.808Z,98.80
2018-05-13T03:01:49.328Z,98.80
2018-05-13T03:04:16.824Z,98.80
2018-05-13T03:06:44.352Z,99.00
2018-05-13T03:09:11.849Z,99.00
2018-05-13T03:11:39.368Z,99.10
2018-05-13T03:14:06.865Z,99.10
2018-05-13T03:16:34.384Z,99.10
2018-05-13T03:19:01.966Z,99.30
2018-05-13T03:21:29.397Z,99.20
2018-05-13T03:23:56.921Z,99.40
2018-05-13T03:26:24.416Z,99.40
2018-05-13T03:28:51.935Z,99.30
2018-05-13T03:31:19.428Z,99.40
2018-05-13T03:33:46.948Z,99.40
2018-05-13T03:36:14.448Z,99.50
2018-05-13T03:38:41.972Z,99.50
2018-05-13T03:41:09.481Z,99.60
2018-05-13T03:43:37.744Z,99.70
2018-05-13T03:46:05.268Z,99.60
2018-05-13T03:48:32.769Z,99.90
2018-05-13T03:51:01.052Z,99.90
2018-05-13T03:53:29.311Z,99.70
2018-05-13T03:55:56.828Z,99.60
2018-05-13T03:58:24.444Z,99.70
2018-05-13T04:00:52.724Z,99.80
2018-05-13T04:03:20.982Z,99.80
2018-05-13T04:05:48.476Z,99.70
2018-05-13T04:11:38.180Z,99.70
2018-05-13T04:14:17.669Z,99.70
2018-05-13T04:16:45.189Z,99.80
2018-05-13T04:19:12.685Z,99.70
2018-05-13T04:21:40.179Z,99.60
2018-05-13T04:24:08.465Z,99.80
2018-05-13T04:26:35.959Z,99.80
2018-05-13T04:29:03.476Z,99.80
2018-05-13T04:31:31.736Z,99.80
2018-05-13T04:34:00.021Z,99.70
2018-05-13T04:36:28.292Z,99.70
2018-05-13T04:38:56.572Z,99.60
2018-05-13T04:41:24.832Z,99.60
2018-05-13T04:43:52.348Z,99.50
2018-05-13T04:46:19.852Z,99.60
2018-05-13T04:48:47.349Z,99.70
2018-05-13T04:51:14.876Z,99.60
2018-05-13T04:53:43.136Z,99.30
2018-05-13T04:56:10.652Z,99.30
2018-05-13T04:58:38.148Z,99.20
2018-05-13T05:01:06.435Z,99.40
2018-05-13T05:03:33.934Z,99.40
2018-05-13T05:06:01.460Z,99.20
2018-05-13T05:08:28.961Z,99.10
2018-05-13T05:10:56.456Z,98.90
2018-05-13T05:13:23.968Z,99.00
2018-05-13T05:15:51.464Z,99.00
2018-05-13T05:18:18.985Z,98.90
2018-05-13T05:20:46.484Z,98.80
2018-05-13T05:23:14.011Z,99.00
2018-05-13T05:25:41.508Z,98.80
2018-05-13T05:28:09.024Z,99.10
2018-05-13T05:30:36.525Z,99.20
2018-05-13T05:33:04.024Z,99.20
2018-05-13T05:35:31.567Z,99.20
2018-05-13T05:37:59.052Z,99.20
2018-05-13T05:40:26.572Z,99.10
2018-05-13T05:42:54.064Z,99.20
2018-05-13T05:45:21.584Z,99.30
2018-05-13T05:47:50.608Z,98.70
2018-05-13T05:50:18.898Z,98.40
2018-05-13T05:52:46.400Z,98.40
2018-05-13T05:55:13.922Z,98.50
2018-05-13T05:57:41.422Z,98.40
2018-05-13T06:00:08.937Z,98.40
2018-05-13T06:02:36.456Z,98.30
2018-05-13T06:05:03.960Z,98.20
2018-05-13T06:07:31.475Z,98.40
2018-05-13T06:09:59.756Z,98.00
2018-05-13T06:12:28.040Z,98.00
2018-05-13T06:14:56.297Z,97.90
2018-05-13T06:17:23.815Z,97.90
2018-05-13T06:19:51.313Z,97.90
2018-05-13T06:22:18.836Z,98.00
2018-05-13T06:24:46.456Z,98.40
2018-05-13T06:27:14.724Z,97.90
2018-05-13T06:29:43.015Z,98.10
2018-05-13T06:32:10.517Z,98.00
2018-05-13T06:34:38.036Z,97.80
2018-05-13T06:37:05.531Z,97.80
2018-05-13T06:39:33.108Z,98.00
2018-05-13T06:42:00.568Z,97.90
2018-05-13T06:44:28.092Z,98.10
2018-05-13T06:46:55.589Z,98.10
2018-05-13T06:49:23.089Z,98.20
2018-05-13T06:51:50.607Z,98.00
2018-05-13T06:54:18.100Z,97.60
2018-05-13T06:56:45.628Z,97.60
2018-05-13T06:59:13.128Z,97.40
2018-05-13T07:01:40.644Z,97.60
2018-05-13T07:04:08.904Z,97.40
2018-05-13T07:06:36.420Z,97.40
2018-05-13T07:09:03.925Z,97.20
2018-05-13T07:11:31.428Z,97.10
2018-05-13T07:13:59.708Z,95.80
2018-05-13T07:16:27.286Z,95.70
2018-05-13T07:18:56.250Z,95.50
2018-05-13T07:21:24.521Z,95.40
2018-05-13T07:23:52.804Z,95.00
2018-05-13T07:26:21.064Z,95.10
2018-05-13T07:28:48.584Z,95.10
2018-05-13T07:31:16.086Z,95.00
2018-05-13T07:33:43.588Z,94.80
2018-05-13T07:36:11.104Z,94.60
2018-05-13T07:38:39.365Z,95.20
2018-05-13T07:41:06.884Z,94.80
2018-05-13T07:43:34.380Z,94.70
2018-05-13T07:46:01.900Z,94.40
2018-05-13T07:48:29.391Z,94.60
2018-05-13T07:50:57.015Z,94.20
2018-05-13T07:53:24.433Z,94.60
2018-05-13T07:55:52.721Z,94.00
2018-05-13T07:58:20.985Z,94.00
2018-05-13T08:00:49.248Z,94.60
2018-05-13T08:03:16.763Z,94.60
2018-05-13T08:05:44.263Z,94.30
2018-05-13T08:08:11.776Z,94.20
2018-05-13T08:10:39.268Z,93.90
2018-05-13T08:13:06.789Z,94.10
2018-05-13T08:15:34.289Z,94.10
2018-05-13T08:18:01.811Z,94.10
2018-05-13T08:20:29.377Z,93.90
2018-05-13T08:22:56.822Z,93.90
2018-05-13T08:25:24.340Z,94.00
2018-05-13T08:27:52.604Z,93.80
2018-05-13T08:30:20.124Z,93.70
2018-05-13T08:32:47.620Z,93.10
2018-05-13T08:35:15.136Z,92.80
2018-05-13T08:37:42.637Z,93.10
2018-05-13T08:40:10.163Z,92.70
2018-05-13T08:42:37.660Z,92.00
2018-05-13T08:45:05.181Z,92.20
2018-05-13T08:47:32.684Z,92.00
2018-05-13T08:50:00.180Z,91.30
2018-05-13T08:52:27.707Z,91.70
2018-05-13T08:54:55.975Z,90.20
2018-05-13T08:57:23.492Z,90.20
2018-05-13T08:59:50.987Z,90.00
2018-05-13T09:02:18.510Z,90.50
2018-05-13T09:04:46.004Z,90.00
2018-05-13T09:07:13.525Z,90.40
2018-05-13T09:09:41.020Z,90.40
2018-05-13T09:12:08.520Z,90.10
2018-05-13T09:14:36.040Z,90.40
2018-05-13T09:17:03.532Z,90.80
2018-05-13T09:19:31.048Z,90.60
2018-05-13T09:21:58.544Z,91.20
2018-05-13T09:24:26.828Z,91.80
2018-05-13T09:26:54.320Z,91.80
2018-05-13T09:29:21.835Z,90.60
2018-05-13T09:31:50.099Z,91.60
2018-05-13T09:34:18.376Z,91.00
2018-05-13T09:36:46.664Z,91.30
2018-05-13T09:39:14.927Z,90.60
2018-05-13T09:41:43.215Z,90.10
2018-05-13T09:44:11.481Z,89.40
2018-05-13T09:46:39.764Z,88.50
2018-05-13T09:49:08.026Z,86.90
2018-05-13T09:51:36.316Z,88.30
2018-05-13T09:54:04.580Z,85.40
2018-05-13T09:56:32.850Z,84.80
2018-05-13T09:59:00.372Z,84.10
2018-05-13T10:01:27.872Z,86.10
2018-05-13T10:03:55.392Z,83.60
2018-05-13T10:06:22.888Z,82.50
2018-05-13T10:08:50.404Z,81.60
2018-05-13T10:11:17.896Z,83.20
2018-05-13T10:13:45.420Z,82.40
2018-05-13T10:16:12.917Z,79.60
2018-05-13T10:18:40.444Z,78.30
2018-05-13T10:21:07.940Z,77.50
2018-05-13T10:23:35.436Z,74.20
2018-05-13T10:26:02.953Z,74.40
2018-05-13T10:28:30.444Z,74.90
2018-05-13T10:30:57.970Z,72.30
2018-05-13T10:33:25.476Z,73.20
2018-05-13T10:35:53.000Z,68.30
2018-05-13T10:38:21.260Z,66.80
2018-05-13T10:40:48.765Z,66.60
2018-05-13T10:43:16.288Z,66.00
2018-05-13T10:45:43.780Z,64.20
2018-05-13T10:48:11.299Z,65.70
2018-05-13T10:50:38.791Z,62.90
2018-05-13T10:53:06.304Z,63.30
2018-05-13T10:55:33.796Z,60.80
2018-05-13T10:58:02.056Z,59.20
2018-05-13T11:00:29.568Z,59.20
2018-05-13T11:02:57.057Z,59.50
2018-05-13T11:05:24.584Z,59.00
2018-05-13T11:07:52.081Z,57.80
2018-05-13T11:10:19.645Z,58.80
2018-05-13T11:12:47.107Z,57.30
2018-05-13T11:15:14.619Z,57.30
2018-05-13T11:17:42.113Z,54.30
2018-05-13T11:20:09.652Z,54.00
2018-05-13T11:22:37.139Z,52.90
2018-05-13T11:25:04.636Z,51.40
2018-05-13T11:27:32.144Z,50.80
2018-05-13T11:29:59.631Z,51.40
2018-05-13T11:32:27.151Z,51.80
2018-05-13T11:34:54.644Z,51.70
2018-05-13T11:37:22.900Z,52.10
2018-05-13T11:39:50.435Z,52.10
2018-05-13T11:42:17.919Z,51.20
2018-05-13T11:44:45.432Z,49.60
2018-05-13T11:47:12.919Z,48.90
2018-05-13T11:49:40.432Z,46.10
2018-05-13T11:52:07.921Z,44.90
2018-05-13T11:54:35.432Z,42.10
2018-05-13T11:57:03.688Z,39.50
2018-05-13T11:59:31.180Z,39.40
2018-05-13T12:01:58.696Z,38.10
2018-05-13T12:04:27.697Z,33.90
2018-05-13T12:06:55.217Z,33.90
2018-05-13T12:09:22.704Z,32.20
2018-05-13T12:11:50.217Z,30.20
2018-05-13T12:14:17.713Z,31.60
2018-05-13T12:16:45.200Z,32.90
2018-05-13T12:19:13.480Z,34.80
2018-05-13T12:21:41.731Z,32.10
2018-05-13T12:24:09.246Z,32.10
2018-05-13T12:26:36.735Z,31.90
2018-05-13T12:29:04.247Z,33.40
2018-05-13T12:31:31.740Z,34.40
2018-05-13T12:33:59.257Z,31.90
2018-05-13T12:36:27.512Z,30.10
2018-05-13T12:38:55.005Z,30.00
2018-05-13T12:41:22.520Z,29.30
2018-05-13T12:43:50.020Z,29.20
2018-05-13T12:46:17.556Z,30.80
2018-05-13T12:48:45.812Z,33.30
2018-05-13T12:51:13.324Z,33.30
2018-05-13T12:53:40.823Z,34.20
2018-05-13T12:56:08.355Z,31.90
2018-05-13T12:58:35.844Z,29.70
2018-05-13T13:01:04.840Z,27.10
2018-05-13T13:03:32.352Z,27.10
2018-05-13T13:05:59.849Z,26.10
2018-05-13T13:08:27.367Z,25.90
2018-05-13T13:10:54.856Z,27.50
2018-05-13T13:13:22.372Z,28.40
2018-05-13T13:15:49.872Z,29.80
2018-05-13T13:18:17.365Z,30.60
2018-05-13T13:20:45.644Z,29.10
2018-05-13T13:23:13.904Z,29.70
2018-05-13T13:25:41.416Z,29.60
2018-05-13T13:28:08.907Z,28.20
2018-05-13T13:30:36.434Z,27.40
2018-05-13T13:33:03.932Z,27.10
2018-05-13T13:35:31.440Z,26.80
2018-05-13T13:37:58.932Z,26.90
2018-05-13T13:40:26.424Z,27.70
2018-05-13T13:42:54.705Z,31.00
2018-05-13T13:45:22.956Z,31.20
2018-05-13T13:47:50.468Z,31.10
2018-05-13T13:50:17.961Z,31.40
2018-05-13T13:52:45.479Z,31.80
2018-05-13T13:55:12.972Z,32.60
2018-05-13T13:57:40.484Z,33.40
2018-05-13T14:00:08.736Z,32.90
2018-05-13T14:02:36.236Z,32.90
2018-05-13T14:05:03.760Z,35.00
2018-05-13T14:07:31.248Z,34.10
2018-05-13T14:09:58.768Z,34.20
2018-05-13T14:12:26.264Z,34.40
2018-05-13T14:14:53.780Z,35.50
2018-05-13T14:17:21.268Z,36.00
2018-05-13T14:19:49.536Z,39.30
2018-05-13T14:22:17.816Z,43.20
2018-05-13T14:24:46.076Z,45.90
2018-05-13T14:27:13.593Z,45.90
2018-05-13T14:29:41.088Z,48.90
2018-05-13T14:32:08.616Z,51.20
2018-05-13T14:34:36.109Z,53.50
2018-05-13T14:37:03.614Z,55.90
2018-05-13T14:39:31.164Z,58.70
2018-05-13T14:41:59.428Z,68.00
2018-05-13T14:44:27.725Z,89.70
2018-05-13T14:46:55.220Z,90.00
2018-05-13T14:49:22.744Z,98.70
2018-05-13T14:51:50.245Z,99.90
2018-05-13T14:54:17.753Z,99.90
2018-05-13T14:56:45.304Z,99.90
2018-05-13T14:59:13.568Z,99.90
2018-05-13T15:01:41.857Z,99.90
2018-05-13T15:04:09.355Z,99.90
2018-05-13T15:06:36.890Z,99.90
2018-05-13T15:09:04.393Z,99.90
2018-05-13T15:11:31.912Z,99.90
2018-05-13T15:13:59.417Z,99.90
2018-05-13T15:16:26.920Z,99.90
2018-05-13T15:18:54.556Z,99.90
2018-05-13T15:21:22.820Z,99.90
2018-05-13T15:23:50.347Z,99.90
2018-05-13T15:26:17.839Z,99.90
2018-05-13T15:28:45.360Z,99.90
2018-05-13T15:31:12.861Z,99.90
2018-05-13T15:33:41.128Z,99.90
2018-05-13T15:36:08.648Z,99.90
2018-05-13T15:38:36.152Z,99.90
2018-05-13T15:41:03.676Z,99.90
2018-05-13T15:43:31.172Z,99.90
2018-05-13T15:45:58.696Z,99.90
2018-05-13T15:48:26.197Z,99.90
2018-05-13T15:50:54.460Z,99.90
2018-05-13T15:53:21.977Z,99.90
2018-05-13T15:55:49.476Z,99.90
2018-05-13T15:58:16.996Z,99.90
2018-05-13T16:00:44.509Z,99.90
2018-05-13T16:03:12.800Z,99.90
2018-05-13T16:05:40.300Z,99.90
2018-05-13T16:08:07.795Z,99.90
2018-05-13T16:10:36.086Z,99.90
2018-05-13T16:13:04.347Z,99.90
2018-05-13T16:15:32.637Z,99.90
2018-05-13T16:18:00.898Z,99.90
2018-05-13T16:20:29.188Z,99.90
2018-05-13T16:22:57.456Z,99.90
2018-05-13T16:25:25.749Z,99.90
2018-05-13T16:27:53.248Z,99.90
2018-05-13T16:30:20.820Z,99.90
2018-05-13T16:32:49.040Z,99.90
2018-05-13T16:35:17.300Z,99.90
2018-05-13T16:37:45.588Z,99.90
2018-05-13T16:40:13.852Z,99.90
2018-05-13T16:42:42.140Z,99.90
2018-05-13T16:45:10.400Z,99.90
2018-05-13T16:47:38.669Z,99.90
2018-05-13T16:50:07.697Z,99.90
2018-05-13T16:52:35.198Z,99.90
2018-05-13T16:55:02.721Z,99.90
2018-05-13T16:57:30.217Z,99.90
2018-05-13T16:59:57.745Z,99.90
2018-05-13T17:02:25.318Z,99.90
2018-05-13T17:04:52.785Z,99.90
2018-05-13T17:07:20.283Z,99.90
2018-05-13T17:09:48.552Z,99.90
2018-05-13T17:12:16.072Z,99.90
2018-05-13T17:14:43.573Z,99.90
2018-05-13T17:17:11.107Z,99.90
2018-05-13T17:19:38.626Z,99.90
2018-05-13T17:22:06.161Z,99.90
2018-05-13T17:24:34.424Z,99.90
2018-05-13T17:27:01.920Z,99.90
2018-05-13T17:29:29.440Z,99.90
2018-05-13T17:31:56.940Z,99.90
2018-05-13T17:34:24.464Z,99.90
2018-05-13T17:36:52.727Z,99.90
2018-05-13T17:39:20.255Z,99.90
2018-05-13T17:41:47.764Z,99.90
2018-05-13T17:44:16.040Z,99.90
2018-05-13T17:46:44.332Z,99.90
2018-05-13T17:49:11.832Z,99.90
2018-05-13T17:51:39.356Z,99.90
2018-05-13T17:54:06.851Z,99.90
2018-05-13T17:56:34.371Z,99.90
2018-05-13T17:59:01.886Z,99.90
2018-05-13T18:01:30.901Z,99.90
2018-05-13T18:03:59.190Z,99.90
2018-05-13T18:06:26.694Z,99.90
2018-05-13T18:08:54.216Z,99.90
2018-05-13T18:11:21.714Z,99.90
2018-05-13T18:13:49.251Z,99.90
2018-05-13T18:16:16.748Z,99.90
2018-05-13T18:18:44.252Z,99.90
2018-05-13T18:21:11.770Z,99.90
2018-05-13T18:23:39.268Z,99.90
2018-05-13T18:26:06.781Z,99.90
2018-05-13T18:28:35.780Z,99.90
2018-05-13T18:31:04.085Z,99.90
2018-05-13T18:33:32.336Z,99.90
2018-05-13T18:35:59.856Z,99.90
2018-05-13T18:38:27.351Z,99.90
2018-05-13T18:40:54.840Z,99.90
2018-05-13T18:43:23.124Z,99.90
2018-05-13T18:45:50.616Z,99.90
2018-05-13T18:48:18.136Z,99.90
2018-05-13T18:50:45.632Z,99.90
2018-05-13T18:53:13.144Z,99.90
2018-05-13T18:55:41.401Z,99.90
2018-05-13T18:58:08.893Z,99.90
2018-05-13T19:00:36.408Z,99.90
2018-05-13T19:03:03.899Z,99.90
2018-05-13T19:05:32.181Z,99.90
2018-05-13T19:08:00.439Z,99.90
2018-05-13T19:10:28.724Z,99.90
2018-05-13T19:12:56.980Z,99.90
2018-05-13T19:15:24.468Z,99.90
2018-05-13T19:17:52.748Z,99.90
2018-05-13T19:20:21.004Z,99.90
2018-05-13T19:22:48.521Z,99.90
2018-05-13T19:25:16.012Z,99.90
2018-05-13T19:27:43.503Z,99.90
2018-05-13T19:30:11.021Z,99.90
2018-05-13T19:32:39.296Z,99.90
2018-05-13T19:35:06.811Z,99.90
2018-05-13T19:37:34.316Z,99.90
2018-05-13T19:40:01.833Z,99.90
2018-05-13T19:42:29.324Z,99.90
2018-05-13T19:44:56.845Z,99.90
2018-05-13T19:47:24.337Z,99.90
2018-05-13T19:49:51.832Z,99.90
2018-05-13T19:52:20.113Z,99.90
2018-05-13T19:54:48.372Z,99.90
2018-05-13T19:57:15.888Z,99.90
2018-05-13T19:59:43.380Z,99.90
2018-05-13T20:02:10.892Z,99.90
2018-05-13T20:04:38.383Z,99.90
2018-05-13T20:07:05.896Z,99.90
2018-05-13T20:09:34.172Z,99.90
2018-05-13T20:12:02.428Z,99.90
2018-05-13T20:14:29.944Z,99.90
2018-05-13T20:16:57.431Z,99.90
2018-05-13T20:19:25.712Z,99.90
2018-05-13T20:21:53.204Z,99.90
2018-05-13T20:24:21.489Z,99.90
2018-05-13T20:26:48.984Z,99.90
2018-05-13T20:29:16.503Z,99.90
2018-05-13T20:31:43.996Z,99.90
2018-05-13T20:34:11.488Z,99.90
2018-05-13T20:36:39.000Z,99.90
2018-05-13T20:39:06.487Z,99.90
2018-05-13T20:41:34.006Z,99.90
2018-05-13T20:44:01.501Z,99.90
2018-05-13T20:46:29.021Z,99.90
2018-05-13T20:48:56.525Z,99.90
2018-05-13T20:51:24.024Z,99.90
2018-05-13T20:53:51.596Z,99.90
2018-05-13T20:56:19.051Z,99.90
2018-05-13T20:58:46.569Z,99.90
2018-05-13T21:01:15.570Z,99.90
2018-05-13T21:03:43.083Z,99.90
2018-05-13T21:06:10.576Z,99.90
2018-05-13T21:08:38.073Z,99.90
2018-05-13T21:11:05.583Z,99.90
2018-05-13T21:13:33.075Z,99.90
2018-05-13T21:16:01.377Z,99.90
2018-05-13T21:18:28.871Z,99.90
2018-05-13T21:20:56.386Z,99.90
2018-05-13T21:23:23.880Z,99.90
2018-05-13T21:25:51.396Z,99.90
2018-05-13T21:28:19.652Z,99.90
2018-05-13T21:30:47.913Z,99.90
2018-05-13T21:33:15.430Z,99.90
2018-05-13T21:35:42.924Z,99.90
2018-05-13T21:38:10.445Z,99.90
2018-05-13T21:40:37.944Z,99.90
2018-05-13T21:43:06.232Z,99.90
2018-05-13T21:45:33.728Z,99.90
2018-05-13T21:48:01.232Z,99.90
2018-05-13T21:50:28.753Z,99.90
2018-05-13T21:52:56.253Z,99.90
2018-05-13T21:55:24.544Z,99.90
2018-05-13T21:57:52.041Z,99.90
2018-05-13T22:00:19.564Z,99.90
2018-05-13T22:02:47.837Z,99.90
2018-05-13T22:05:15.356Z,99.90
2018-05-13T22:07:42.860Z,99.90
2018-05-13T22:10:11.123Z,99.90
2018-05-13T22:12:38.644Z,99.90
2018-05-13T22:15:06.144Z,99.90
2018-05-13T22:17:33.753Z,99.90
2018-05-13T22:20:01.188Z,99.90
2018-05-13T22:22:29.480Z,99.90
2018-05-13T22:24:56.980Z,99.90
2018-05-13T22:27:24.512Z,99.90
2018-05-13T22:29:52.008Z,99.90
2018-05-13T22:32:19.509Z,99.90
2018-05-13T22:34:47.032Z,99.90
2018-05-13T22:37:14.539Z,99.90
2018-05-13T22:39:42.057Z,99.90
2018-05-13T22:42:10.328Z,99.90
2018-05-13T22:44:37.847Z,99.90
2018-05-13T22:47:05.345Z,99.90
2018-05-13T22:49:32.869Z,99.90
2018-05-13T22:52:00.410Z,99.90
2018-05-13T22:54:27.937Z,99.90
2018-05-13T22:56:56.200Z,99.90
2018-05-13T22:59:23.700Z,99.90
2018-05-13T23:01:51.224Z,99.90
2018-05-13T23:04:19.499Z,99.90
2018-05-13T23:06:47.026Z,99.90
2018-05-13T23:09:14.550Z,99.90
2018-05-13T23:11:42.067Z,99.90
2018-05-13T23:14:09.560Z,99.90
2018-05-13T23:16:37.084Z,99.90
2018-05-13T23:19:04.585Z,99.90
2018-05-13T23:21:32.083Z,99.90
2018-05-13T23:23:59.600Z,99.90
2018-05-13T23:26:27.096Z,99.90
2018-05-13T23:28:54.616Z,99.90
2018-05-13T23:31:22.116Z,99.90
2018-05-13T23:33:49.641Z,99.90
2018-05-13T23:36:17.140Z,99.90
2018-05-13T23:38:44.635Z,99.90
2018-05-13T23:41:12.932Z,99.90
2018-05-13T23:43:40.440Z,99.90
2018-05-13T23:46:08.723Z,99.90
2018-05-13T23:48:36.223Z,99.90
2018-05-13T23:51:03.740Z,99.90
2018-05-13T23:53:32.034Z,99.90
2018-05-13T23:56:00.304Z,99.90
2018-05-13T23:58:28.592Z,99.90
